Aviation Digital Data Service (ADDS)

Output produced by METARs form (0403 UTC 29 July 2016)
found at http://aviationweather.gov/adds/metars/
 
KGSO 282343Z 2900/2924 21010KT P6SM SKC 
     FM290200 24004KT P6SM SKC 
     FM291800 29008KT P6SM SCT050